createdAt,value
2023-03-26T00:00:13.053Z,3.53
2023-03-26T00:03:18.725Z,2.72
2023-03-26T00:06:23.189Z,3.57
2023-03-26T00:09:26.298Z,3.67
2023-03-26T00:12:28.718Z,1.33
2023-03-26T00:15:32.347Z,2.42
2023-03-26T00:18:35.040Z,2.03
2023-03-26T00:21:38.227Z,3.95
2023-03-26T00:24:40.752Z,4.35
2023-03-26T00:27:45.904Z,1.07
2023-03-26T00:30:59.613Z,1.83
2023-03-26T00:34:04.047Z,2.03
2023-03-26T00:37:07.186Z,2.37
2023-03-26T00:40:11.219Z,1.05
2023-03-26T00:43:20.873Z,2.05
2023-03-26T00:46:25.232Z,2.10
2023-03-26T00:49:30.656Z,1.40
2023-03-26T00:52:33.701Z,1.63
2023-03-26T00:55:36.520Z,1.92
2023-03-26T00:58:39.720Z,3.00
2023-03-26T01:01:42.632Z,1.10
2023-03-26T01:04:55.764Z,1.95
2023-03-26T01:07:58.467Z,3.20
2023-03-26T01:11:07.139Z,1.80
2023-03-26T01:14:16.087Z,1.92
2023-03-26T01:17:18.916Z,1.60
2023-03-26T01:20:30.588Z,1.40
2023-03-26T01:23:43.254Z,1.25
2023-03-26T01:27:12.123Z,1.00
2023-03-26T01:30:33.816Z,1.27
2023-03-26T01:33:49.096Z,1.17
2023-03-26T01:37:27.515Z,0.38
2023-03-26T01:41:02.370Z,2.20
2023-03-26T01:44:30.796Z,0.47
2023-03-26T01:47:34.965Z,2.30
2023-03-26T01:50:37.815Z,1.33
2023-03-26T01:53:46.737Z,1.25
2023-03-26T01:57:07.706Z,1.15
2023-03-26T02:00:25.508Z,1.95
2023-03-26T02:03:32.377Z,0.60
2023-03-26T02:06:37.998Z,1.10
2023-03-26T02:09:46.082Z,0.40
2023-03-26T02:12:49.955Z,1.40
2023-03-26T02:16:01.521Z,0.95
2023-03-26T02:19:04.554Z,1.27
2023-03-26T02:22:15.990Z,0.55
2023-03-26T02:25:21.243Z,0.60
2023-03-26T02:28:26.016Z,0.10
2023-03-26T02:31:30.604Z,1.00
2023-03-26T02:34:34.070Z,1.10
2023-03-26T02:37:36.842Z,0.77
2023-03-26T02:40:48.468Z,1.48
2023-03-26T02:43:51.802Z,0.60
2023-03-26T02:46:57.551Z,0.98
2023-03-26T02:50:20.792Z,1.95
2023-03-26T02:53:43.506Z,0.73
2023-03-26T02:57:08.370Z,0.60
2023-03-26T03:00:30.628Z,1.10
2023-03-26T03:04:04.344Z,0.60
2023-03-26T03:07:16.920Z,0.53
2023-03-26T03:10:21.979Z,1.20
2023-03-26T03:13:42.468Z,0.70
2023-03-26T03:16:45.047Z,0.30
2023-03-26T03:19:48.522Z,1.75
2023-03-26T03:22:53.202Z,0.93
2023-03-26T03:25:57.783Z,1.95
2023-03-26T03:29:00.765Z,3.45
2023-03-26T03:32:04.149Z,1.52
2023-03-26T03:35:14.673Z,1.10
2023-03-26T03:38:20.842Z,1.63
2023-03-26T03:41:25.881Z,1.63
2023-03-26T03:44:28.830Z,1.17
2023-03-26T03:47:31.591Z,1.27
2023-03-26T03:50:35.827Z,1.73
2023-03-26T03:53:58.760Z,0.40
2023-03-26T03:57:23.077Z,1.95
2023-03-26T04:00:33.466Z,0.68
2023-03-26T04:03:56.836Z,0.40
2023-03-26T04:07:05.489Z,1.10
2023-03-26T04:10:30.210Z,1.47
2023-03-26T04:13:47.764Z,0.77
2023-03-26T04:17:06.169Z,2.60
2023-03-26T04:20:16.122Z,0.70
2023-03-26T04:23:22.769Z,1.48
2023-03-26T04:26:31.629Z,0.60
2023-03-26T04:29:43.415Z,0.70
2023-03-26T04:32:58.602Z,1.33
2023-03-26T04:36:03.616Z,1.08
2023-03-26T04:39:13.205Z,0.63
2023-03-26T04:42:46.541Z,1.47
2023-03-26T04:46:03.404Z,0.82
2023-03-26T04:49:10.968Z,0.80
2023-03-26T04:52:15.427Z,1.70
2023-03-26T04:55:45.597Z,1.05
2023-03-26T04:58:59.935Z,2.22
2023-03-26T05:02:05.311Z,0.90
2023-03-26T05:05:14.932Z,1.38
2023-03-26T05:08:17.790Z,1.38
2023-03-26T05:11:20.629Z,1.23
2023-03-26T05:14:24.142Z,1.77
2023-03-26T05:17:30.906Z,0.45
2023-03-26T05:20:36.240Z,0.60
2023-03-26T05:23:41.476Z,1.30
2023-03-26T05:26:56.515Z,0.63
2023-03-26T05:30:01.585Z,3.10
2023-03-26T05:33:05.776Z,4.55
2023-03-26T05:36:19.197Z,6.88
2023-03-26T05:39:35.838Z,3.20
2023-03-26T05:43:01.650Z,21.00
2023-03-26T05:46:13.653Z,12.07
2023-03-26T05:49:16.190Z,17.50
2023-03-26T05:52:19.501Z,11.13
2023-03-26T05:55:40.721Z,2.27
2023-03-26T05:59:02.417Z,2.60
2023-03-26T06:02:23.897Z,2.40
2023-03-26T06:06:10.355Z,1.60
2023-03-26T06:09:22.949Z,2.35
2023-03-26T06:12:25.717Z,2.53
2023-03-26T06:15:28.609Z,4.82
2023-03-26T06:18:37.319Z,2.23
2023-03-26T06:22:09.416Z,2.08
2023-03-26T06:25:31.997Z,2.67
2023-03-26T06:28:44.841Z,1.53
2023-03-26T06:32:19.769Z,1.02
2023-03-26T06:35:45.474Z,2.60
2023-03-26T06:38:49.407Z,1.80
2023-03-26T06:41:52.497Z,1.33
2023-03-26T06:45:30.682Z,3.20
2023-03-26T06:48:52.371Z,1.85
2023-03-26T06:52:15.673Z,1.53
2023-03-26T06:55:26.231Z,0.68
2023-03-26T06:58:40.979Z,1.27
2023-03-26T07:02:01.746Z,1.73
2023-03-26T07:05:23.221Z,1.60
2023-03-26T07:08:44.530Z,0.65
2023-03-26T07:12:06.639Z,0.95
2023-03-26T07:15:18.431Z,1.35
2023-03-26T07:18:33.137Z,1.38
2023-03-26T07:21:37.804Z,0.55
2023-03-26T07:24:50.907Z,2.67
2023-03-26T07:28:14.642Z,1.65
2023-03-26T07:31:52.390Z,2.50
2023-03-26T07:35:32.925Z,2.20
2023-03-26T07:39:15.187Z,1.13
2023-03-26T07:43:03.386Z,2.10
2023-03-26T07:46:30.373Z,1.52
2023-03-26T07:49:48.948Z,2.58
2023-03-26T07:53:04.437Z,1.25
2023-03-26T07:56:38.061Z,1.52
2023-03-26T08:00:17.860Z,0.40
2023-03-26T08:03:47.820Z,3.03
2023-03-26T08:07:47.325Z,0.73
2023-03-26T08:11:27.986Z,1.17
2023-03-26T08:14:59.689Z,1.60
2023-03-26T08:18:27.341Z,0.47
2023-03-26T08:21:42.687Z,1.75
2023-03-26T08:25:22.896Z,6.32
2023-03-26T08:28:41.891Z,1.13
2023-03-26T08:31:46.453Z,1.15
2023-03-26T08:34:49.774Z,1.53
2023-03-26T08:37:52.483Z,2.58
2023-03-26T08:41:07.626Z,2.10
2023-03-26T08:45:00.397Z,2.60
2023-03-26T08:48:19.099Z,0.60
2023-03-26T08:51:43.771Z,0.75
2023-03-26T08:54:58.461Z,1.17
2023-03-26T08:58:08.961Z,2.60
2023-03-26T09:01:36.452Z,0.75
2023-03-26T09:04:54.918Z,2.58
2023-03-26T09:08:35.863Z,2.00
2023-03-26T09:11:44.350Z,0.80
2023-03-26T09:15:04.950Z,0.93
2023-03-26T09:18:53.636Z,1.93
2023-03-26T09:22:15.702Z,2.47
2023-03-26T09:25:56.181Z,0.90
2023-03-26T09:29:41.672Z,0.43
2023-03-26T09:33:03.411Z,2.15
2023-03-26T09:36:09.160Z,0.57
2023-03-26T09:39:33.057Z,0.50
2023-03-26T09:42:45.022Z,0.43
2023-03-26T09:46:18.169Z,0.70
2023-03-26T09:49:38.791Z,0.38
2023-03-26T09:53:05.527Z,0.33
2023-03-26T09:56:23.210Z,0.38
2023-03-26T09:59:36.681Z,2.58
2023-03-26T10:02:46.529Z,1.10
2023-03-26T10:06:14.925Z,0.52
2023-03-26T10:09:26.639Z,1.20
2023-03-26T10:12:37.453Z,2.33
2023-03-26T10:16:05.554Z,0.67
2023-03-26T10:19:24.443Z,2.50
2023-03-26T10:22:44.416Z,0.88
2023-03-26T10:26:00.486Z,1.13
2023-03-26T10:29:24.594Z,1.30
2023-03-26T10:32:57.853Z,17.05
2023-03-26T10:36:21.405Z,1.13
2023-03-26T10:39:51.568Z,0.63
2023-03-26T10:43:16.826Z,1.58
2023-03-26T10:46:44.317Z,2.58
2023-03-26T10:50:05.057Z,1.13
2023-03-26T10:53:47.198Z,2.13
2023-03-26T10:56:51.947Z,1.67
2023-03-26T11:00:01.340Z,3.37
2023-03-26T11:03:16.340Z,4.47
2023-03-26T11:06:28.073Z,1.15
2023-03-26T11:09:33.404Z,0.85
2023-03-26T11:12:41.101Z,4.07
2023-03-26T11:15:57.953Z,0.55
2023-03-26T11:19:17.889Z,0.52
2023-03-26T11:22:50.332Z,1.03
2023-03-26T11:26:10.879Z,1.23
2023-03-26T11:29:37.651Z,1.15
2023-03-26T11:32:45.336Z,1.53
2023-03-26T11:35:51.517Z,2.53
2023-03-26T11:38:57.874Z,2.38
2023-03-26T11:42:11.561Z,0.85
2023-03-26T11:45:24.143Z,0.50
2023-03-26T11:48:42.349Z,0.38
2023-03-26T11:51:48.863Z,0.77
2023-03-26T11:54:51.933Z,2.27
2023-03-26T11:57:57.523Z,3.00
2023-03-26T12:01:05.064Z,1.20
2023-03-26T12:04:14.639Z,1.47
2023-03-26T12:07:17.463Z,1.42
2023-03-26T12:10:35.101Z,1.15
2023-03-26T12:13:45.019Z,1.92
2023-03-26T12:16:59.335Z,0.40
2023-03-26T12:20:23.188Z,0.38
2023-03-26T12:23:44.249Z,0.80
2023-03-26T12:26:49.226Z,0.93
2023-03-26T12:29:55.141Z,0.50
2023-03-26T12:33:16.544Z,3.03
2023-03-26T12:36:31.586Z,1.40
2023-03-26T12:40:07.882Z,0.82
2023-03-26T12:44:56.160Z,1.30
2023-03-26T12:47:58.450Z,0.60
2023-03-26T12:50:15.579Z,0.63
2023-03-26T12:53:37.898Z,0.40
2023-03-26T12:57:12.601Z,1.23
2023-03-26T13:00:34.136Z,1.53
2023-03-26T13:04:00.293Z,1.05
2023-03-26T13:07:36.335Z,0.45
2023-03-26T13:10:44.843Z,0.70
2023-03-26T13:14:21.816Z,1.00
2023-03-26T13:17:48.885Z,0.20
2023-03-26T13:21:04.937Z,2.83
2023-03-26T13:24:23.710Z,2.22
2023-03-26T13:27:45.043Z,1.38
2023-03-26T13:30:57.140Z,1.67
2023-03-26T13:34:21.341Z,0.40
2023-03-26T13:37:54.582Z,2.45
2023-03-26T13:41:33.060Z,1.50
2023-03-26T13:45:05.086Z,2.13
2023-03-26T13:48:17.559Z,1.98
2023-03-26T13:51:49.058Z,3.25
2023-03-26T13:55:40.232Z,3.60
2023-03-26T13:59:01.823Z,1.70
2023-03-26T14:02:11.896Z,2.60
2023-03-26T14:05:24.181Z,3.28
2023-03-26T14:08:36.491Z,0.97
2023-03-26T14:11:52.998Z,1.48
2023-03-26T14:15:02.332Z,5.18
2023-03-26T14:18:11.131Z,1.50
2023-03-26T14:21:34.477Z,1.10
2023-03-26T14:25:03.270Z,1.85
2023-03-26T14:28:14.843Z,1.55
2023-03-26T14:31:19.532Z,1.88
2023-03-26T14:34:54.831Z,0.90
2023-03-26T14:38:22.854Z,1.10
2023-03-26T14:41:33.744Z,1.43
2023-03-26T14:44:51.465Z,0.57
2023-03-26T14:48:14.136Z,0.73
2023-03-26T14:51:59.249Z,2.20
2023-03-26T14:55:08.254Z,3.38
2023-03-26T14:58:24.305Z,1.65
2023-03-26T15:01:29.675Z,1.45
2023-03-26T15:04:50.993Z,0.85
2023-03-26T15:08:23.928Z,8.32
2023-03-26T15:11:47.549Z,4.03
2023-03-26T15:15:05.456Z,8.30
2023-03-26T15:18:50.008Z,10.75
2023-03-26T15:22:27.346Z,1.90
2023-03-26T15:25:48.464Z,3.80
2023-03-26T15:29:30.483Z,3.22
2023-03-26T15:32:49.748Z,6.03
2023-03-26T15:35:58.656Z,1.60
2023-03-26T15:39:38.098Z,1.65
2023-03-26T15:42:49.739Z,3.85
2023-03-26T15:46:12.944Z,3.80
2023-03-26T15:49:23.438Z,1.70
2023-03-26T15:52:34.339Z,3.63
2023-03-26T15:55:59.175Z,4.28
2023-03-26T15:59:32.356Z,1.93
2023-03-26T16:02:50.373Z,7.20
2023-03-26T16:06:14.102Z,1.23
2023-03-26T16:09:32.710Z,3.03
2023-03-26T16:13:13.986Z,1.50
2023-03-26T16:16:20.929Z,3.58
2023-03-26T16:19:23.405Z,3.30
2023-03-26T16:22:43.855Z,5.47
2023-03-26T16:26:11.759Z,4.53
2023-03-26T16:29:14.702Z,2.83
2023-03-26T16:32:41.593Z,2.23
2023-03-26T16:36:05.856Z,1.45
2023-03-26T16:39:08.641Z,2.60
2023-03-26T16:42:33.302Z,2.28
2023-03-26T16:46:09.958Z,1.58
2023-03-26T16:49:24.496Z,1.58
2023-03-26T16:52:34.541Z,3.53
2023-03-26T16:55:53.409Z,2.50
2023-03-26T16:59:00.386Z,1.48
2023-03-26T17:02:14.557Z,2.47
2023-03-26T17:05:34.258Z,4.20
2023-03-26T17:08:58.681Z,1.77
2023-03-26T17:12:23.833Z,5.47
2023-03-26T17:15:32.888Z,4.47
2023-03-26T17:19:09.812Z,5.95
2023-03-26T17:22:30.303Z,5.72
2023-03-26T17:25:40.502Z,6.05
2023-03-26T17:29:04.640Z,8.87
2023-03-26T17:32:12.327Z,9.75
2023-03-26T17:35:15.881Z,26.73
2023-03-26T17:38:21.627Z,61.07
2023-03-26T17:41:51.190Z,46.78
2023-03-26T17:45:17.618Z,18.02
2023-03-26T17:48:24.065Z,11.95
2023-03-26T17:51:58.113Z,6.72
2023-03-26T17:55:02.230Z,6.75
2023-03-26T17:58:23.585Z,5.32
2023-03-26T18:01:36.254Z,4.20
2023-03-26T18:04:45.636Z,4.75
2023-03-26T18:08:02.169Z,4.00
2023-03-26T18:11:24.221Z,2.20
2023-03-26T18:14:52.882Z,4.18
2023-03-26T18:18:09.596Z,4.40
2023-03-26T18:21:21.794Z,7.88
2023-03-26T18:24:29.335Z,6.15
2023-03-26T18:27:41.063Z,4.18
2023-03-26T18:30:48.507Z,3.58
2023-03-26T18:33:59.206Z,18.93
2023-03-26T18:37:11.394Z,16.98
2023-03-26T18:40:18.555Z,12.90
2023-03-26T18:43:34.404Z,20.00
2023-03-26T18:46:38.670Z,22.45
2023-03-26T18:49:44.377Z,14.13
2023-03-26T18:52:47.130Z,14.00
2023-03-26T18:55:51.533Z,14.23
2023-03-26T18:58:58.136Z,16.65
2023-03-26T19:02:10.836Z,29.90
2023-03-26T19:05:16.912Z,19.77
2023-03-26T19:08:21.881Z,14.98
2023-03-26T19:11:26.588Z,12.10
2023-03-26T19:14:35.292Z,8.97
2023-03-26T19:18:07.061Z,12.35
2023-03-26T19:21:10.648Z,18.70
2023-03-26T19:24:15.017Z,15.75
2023-03-26T19:27:18.312Z,13.27
2023-03-26T19:30:34.070Z,12.73
2023-03-26T19:33:40.322Z,15.25
2023-03-26T19:36:58.443Z,12.73
2023-03-26T19:40:25.629Z,7.60
2023-03-26T19:43:29.574Z,9.02
2023-03-26T19:46:53.645Z,10.67
2023-03-26T19:50:03.224Z,6.50
2023-03-26T19:53:17.909Z,5.22
2023-03-26T19:56:22.250Z,6.25
2023-03-26T19:59:25.037Z,4.97
2023-03-26T20:02:28.567Z,5.95
2023-03-26T20:05:34.497Z,8.75
2023-03-26T20:08:37.630Z,10.77
2023-03-26T20:11:40.843Z,7.35
2023-03-26T20:14:45.469Z,9.30
2023-03-26T20:17:52.550Z,10.80
2023-03-26T20:20:58.023Z,11.25
2023-03-26T20:24:01.510Z,6.72
2023-03-26T20:27:04.416Z,5.75
2023-03-26T20:30:09.137Z,5.38
2023-03-26T20:33:25.646Z,5.60
2023-03-26T20:36:33.820Z,4.40
2023-03-26T20:39:39.635Z,3.87
2023-03-26T20:42:44.629Z,4.60
2023-03-26T20:45:48.598Z,4.40
2023-03-26T20:48:52.039Z,6.17
2023-03-26T20:51:55.861Z,6.60
2023-03-26T20:54:58.962Z,6.82
2023-03-26T20:58:01.778Z,5.22
2023-03-26T21:01:04.904Z,4.20
2023-03-26T21:04:08.040Z,3.55
2023-03-26T21:07:17.838Z,4.03
2023-03-26T21:10:23.165Z,3.77
2023-03-26T21:13:38.998Z,2.38
2023-03-26T21:16:42.194Z,1.40
2023-03-26T21:19:45.864Z,2.17
2023-03-26T21:23:30.582Z,4.40
2023-03-26T21:26:43.637Z,4.60
2023-03-26T21:29:47.089Z,5.30
2023-03-26T21:32:50.267Z,7.18
2023-03-26T21:35:53.833Z,9.48
2023-03-26T21:38:56.697Z,8.10
2023-03-26T21:42:04.807Z,2.77
2023-03-26T21:45:09.411Z,3.72
2023-03-26T21:48:12.835Z,4.82
2023-03-26T21:51:19.215Z,5.90
2023-03-26T21:54:24.925Z,4.10
2023-03-26T21:57:57.852Z,4.00
2023-03-26T22:01:26.285Z,4.50
2023-03-26T22:04:41.512Z,4.65
2023-03-26T22:07:56.404Z,2.58
2023-03-26T22:10:59.181Z,4.65
2023-03-26T22:14:02.968Z,4.13
2023-03-26T22:17:05.816Z,2.22
2023-03-26T22:20:13.061Z,3.90
2023-03-26T22:23:19.947Z,4.30
2023-03-26T22:26:24.100Z,4.78
2023-03-26T22:29:27.393Z,4.50
2023-03-26T22:32:32.897Z,7.68
2023-03-26T22:35:36.164Z,10.68
2023-03-26T22:38:39.750Z,7.82
2023-03-26T22:41:42.755Z,6.70
2023-03-26T22:44:45.713Z,4.87
2023-03-26T22:47:48.357Z,6.70
2023-03-26T22:51:08.355Z,6.28
2023-03-26T22:54:11.054Z,3.00
2023-03-26T22:57:13.775Z,4.88
2023-03-26T23:00:22.184Z,7.00
2023-03-26T23:03:35.079Z,4.43
2023-03-26T23:06:38.328Z,3.63
2023-03-26T23:09:41.802Z,5.65
2023-03-26T23:12:44.302Z,10.57
2023-03-26T23:15:49.179Z,5.20
2023-03-26T23:18:52.375Z,4.07
2023-03-26T23:21:55.176Z,5.05
2023-03-26T23:24:58.266Z,5.53
2023-03-26T23:28:01.083Z,2.15
2023-03-26T23:31:08.355Z,3.90
2023-03-26T23:34:13.638Z,2.67
2023-03-26T23:37:22.881Z,2.55
2023-03-26T23:40:28.309Z,2.33
2023-03-26T23:43:31.150Z,2.78
2023-03-26T23:46:34.770Z,1.93
2023-03-26T23:49:37.434Z,2.08
2023-03-26T23:52:40.236Z,3.58
2023-03-26T23:55:47.259Z,1.83
2023-03-26T23:58:50.504Z,2.30
